Time;durP1;ratioP1;P1;durP2;ratioP2;P2;SDS_P1;SDS_P2;PMS_P1;PMS_P2;Temp;Humidity;BMP_temperature;BMP_pressure;BME280_temperature;BME280_humidity;BME280_pressure;Samples;Min_cycle;Max_cycle;Signal;HPM_P1;HPM_P2
2024/01/08 00:00:49;;;;;;;6.35;3.78;;;;;;;-0.22;100.00;101922.38;5206894;28;20024;-74
2024/01/08 00:03:20;;;;;;;8.10;3.88;;;;;;;-0.28;100.00;101911.91;5209494;28;20078;-74
2024/01/08 00:05:50;;;;;;;7.93;3.65;;;;;;;-0.36;100.00;101923.66;5205736;28;20083;-75
2024/01/08 00:08:20;;;;;;;7.78;3.65;;;;;;;-0.17;100.00;101931.09;5208591;28;20033;-74
2024/01/08 00:10:51;;;;;;;7.20;3.63;;;;;;;-0.10;100.00;101920.16;5207366;28;20033;-74
2024/01/08 00:13:21;;;;;;;7.68;3.75;;;;;;;-0.21;100.00;101930.13;5209450;28;20033;-74
2024/01/08 00:15:51;;;;;;;8.65;4.13;;;;;;;-0.10;100.00;101926.16;5202951;28;20026;-74
2024/01/08 00:18:22;;;;;;;10.05;3.95;;;;;;;-0.04;100.00;101926.34;5206699;28;20028;-74
2024/01/08 00:20:53;;;;;;;7.30;3.30;;;;;;;-0.10;100.00;101930.41;5206887;28;20445;-74
2024/01/08 00:23:23;;;;;;;8.18;3.78;;;;;;;-0.06;100.00;101924.56;5211319;28;20539;-74
2024/01/08 00:25:53;;;;;;;8.73;3.72;;;;;;;-0.18;100.00;101929.34;5206121;28;20049;-74
2024/01/08 00:28:25;;;;;;;8.68;3.90;;;;;;;-0.17;99.89;101920.81;5210155;28;20025;-74
2024/01/08 00:30:56;;;;;;;8.07;3.60;;;;;;;-0.03;99.66;101927.22;5209438;28;20520;-74
2024/01/08 00:33:26;;;;;;;6.43;3.50;;;;;;;-0.10;99.05;101922.72;5210260;28;20044;-74
2024/01/08 00:35:56;;;;;;;6.20;3.30;;;;;;;-0.18;98.48;101919.06;5209215;28;20437;-74
2024/01/08 00:38:27;;;;;;;7.55;3.47;;;;;;;0.01;98.37;101920.50;5207425;28;20033;-73
2024/01/08 00:40:57;;;;;;;7.80;3.75;;;;;;;-0.14;97.98;101931.16;5207776;28;20039;-74
2024/01/08 00:43:27;;;;;;;7.80;3.90;;;;;;;-0.02;98.09;101927.25;5206137;28;20029;-74
2024/01/08 00:45:58;;;;;;;7.63;3.15;;;;;;;0.07;96.99;101933.50;5208014;28;20079;-74
2024/01/08 00:48:28;;;;;;;7.65;3.50;;;;;;;-0.03;97.51;101936.66;5208004;28;20385;-74
2024/01/08 00:50:58;;;;;;;8.95;3.95;;;;;;;-0.08;97.19;101937.34;5205704;28;20032;-74
2024/01/08 00:53:28;;;;;;;8.80;3.83;;;;;;;-0.17;97.29;101949.06;5210110;28;20063;-74
2024/01/08 00:55:59;;;;;;;9.00;3.13;;;;;;;-0.60;95.23;101946.00;5205528;28;20108;-74
2024/01/08 00:58:30;;;;;;;8.93;3.10;;;;;;;-0.59;93.92;101948.66;5207298;28;20312;-73
2024/01/08 01:01:00;;;;;;;8.02;2.85;;;;;;;-0.69;90.22;101953.44;5208092;28;20025;-74
2024/01/08 01:03:30;;;;;;;6.60;2.90;;;;;;;-0.72;88.47;101949.06;5207645;28;20043;-74
2024/01/08 01:06:01;;;;;;;5.70;2.65;;;;;;;-0.77;87.69;101954.88;5209417;28;20030;-73
2024/01/08 01:08:31;;;;;;;7.50;2.55;;;;;;;-0.75;87.49;101948.13;5205330;28;20438;-74
2024/01/08 01:11:02;;;;;;;4.93;2.15;;;;;;;-0.74;87.77;101958.44;5202007;28;20065;-74
2024/01/08 01:13:32;;;;;;;6.35;2.70;;;;;;;-0.78;87.72;101968.53;5210348;28;20055;-74
2024/01/08 01:16:03;;;;;;;6.60;2.70;;;;;;;-0.85;86.85;101969.19;5204771;28;20030;-74
2024/01/08 01:18:33;;;;;;;5.15;2.20;;;;;;;-0.73;86.28;101967.00;5209823;28;20024;-74
2024/01/08 01:21:04;;;;;;;9.73;2.75;;;;;;;-0.70;86.88;101972.22;5207678;28;20108;-74
2024/01/08 01:23:34;;;;;;;6.10;2.42;;;;;;;-0.66;87.06;101976.63;5205312;28;20442;-74
2024/01/08 01:26:04;;;;;;;5.10;2.50;;;;;;;-0.70;84.71;101973.09;5208010;28;20029;-74
2024/01/08 01:28:35;;;;;;;5.90;2.40;;;;;;;-0.81;84.99;101978.72;5209513;28;20648;-74
2024/01/08 01:31:05;;;;;;;4.50;2.50;;;;;;;-0.76;84.94;101974.63;5192809;28;20061;-73
2024/01/08 01:33:36;;;;;;;6.53;2.60;;;;;;;-0.66;83.37;101981.75;5200204;28;20025;-74
2024/01/08 01:36:06;;;;;;;5.53;2.58;;;;;;;-0.56;84.08;101981.25;5206335;28;20033;-74
2024/01/08 01:38:37;;;;;;;5.35;2.50;;;;;;;-0.48;84.13;101978.09;5207322;28;20302;-74
2024/01/08 01:41:07;;;;;;;7.53;2.70;;;;;;;-0.47;83.24;101974.69;5209827;28;20036;-74
2024/01/08 01:43:38;;;;;;;5.15;2.47;;;;;;;-0.31;82.86;101973.47;5209352;28;20102;-74
2024/01/08 01:46:20;;;;;;;6.32;2.53;;;;;;;-0.18;82.40;101963.59;5208947;28;20065;-74
2024/01/08 01:48:50;;;;;;;5.05;2.20;;;;;;;-0.02;82.77;101969.22;5207285;28;20485;-74
2024/01/08 01:51:21;;;;;;;8.45;2.72;;;;;;;-0.15;82.59;101971.41;5209674;28;20024;-74
2024/01/08 01:53:51;;;;;;;5.45;2.35;;;;;;;-0.12;83.38;101971.50;5205673;28;20463;-74
2024/01/08 01:56:22;;;;;;;7.47;2.53;;;;;;;-0.13;82.16;101966.31;5213415;28;20362;-74
2024/01/08 01:58:52;;;;;;;5.28;2.38;;;;;;;-0.12;81.40;101970.59;5208243;28;20039;-74
2024/01/08 02:01:24;;;;;;;6.28;2.28;;;;;;;0.01;82.63;101964.19;5211059;28;20060;-74
2024/01/08 02:03:54;;;;;;;5.50;2.08;;;;;;;-0.03;82.20;101966.59;5205271;28;20063;-74
2024/01/08 02:06:27;;;;;;;9.63;2.75;;;;;;;-0.10;82.29;101966.38;5202735;28;20470;-74
2024/01/08 02:08:57;;;;;;;5.45;2.58;;;;;;;0.00;82.58;101967.56;5205291;28;20044;-74
2024/01/08 02:11:28;;;;;;;6.40;2.55;;;;;;;-0.05;81.75;101958.00;5205905;28;20481;-74
2024/01/08 02:13:59;;;;;;;4.72;2.60;;;;;;;-0.03;82.58;101962.34;5207064;28;20057;-74
2024/01/08 02:16:29;;;;;;;6.80;2.58;;;;;;;-0.03;81.83;101970.88;5207733;28;20084;-74
2024/01/08 02:18:59;;;;;;;5.22;2.53;;;;;;;-0.07;82.25;101969.06;5210472;28;20029;-74
2024/01/08 02:21:30;;;;;;;4.40;2.33;;;;;;;-0.07;81.97;101969.94;5201724;28;20115;-74
2024/01/08 02:24:00;;;;;;;4.93;2.63;;;;;;;0.06;82.39;101970.31;5206116;28;20029;-74
2024/01/08 02:26:30;;;;;;;6.72;2.42;;;;;;;0.04;82.25;101968.56;5208576;28;20033;-74
2024/01/08 02:29:01;;;;;;;6.22;2.55;;;;;;;-0.05;82.16;101967.41;5208105;28;20034;-74
2024/01/08 02:31:32;;;;;;;4.75;2.13;;;;;;;-0.16;82.04;101972.25;5207580;28;20104;-74
2024/01/08 02:34:02;;;;;;;4.65;2.25;;;;;;;-0.03;82.05;101976.03;5209333;28;20033;-74
2024/01/08 02:36:32;;;;;;;5.75;2.40;;;;;;;-0.13;82.43;101974.88;5209427;28;20483;-74
2024/01/08 02:39:02;;;;;;;7.07;2.40;;;;;;;-0.21;82.48;101972.94;5205767;28;20033;-74
2024/01/08 02:41:33;;;;;;;6.82;2.40;;;;;;;-0.34;82.46;101973.38;5209551;28;20021;-74
2024/01/08 02:44:03;;;;;;;5.32;2.40;;;;;;;-0.29;82.74;101979.50;5205611;28;20033;-73
2024/01/08 02:46:33;;;;;;;5.97;2.40;;;;;;;-0.20;83.08;101982.38;5210773;28;20406;-74
2024/01/08 02:49:04;;;;;;;7.57;2.97;;;;;;;-0.33;83.25;101986.28;5210279;28;20287;-74
2024/01/08 02:51:34;;;;;;;5.35;2.45;;;;;;;-0.18;83.63;101981.56;5210329;28;20033;-74
2024/01/08 02:54:04;;;;;;;8.65;2.70;;;;;;;-0.20;83.55;101998.63;5205516;28;20057;-74
2024/01/08 02:56:35;;;;;;;5.88;2.60;;;;;;;-0.39;83.47;102001.47;5208191;28;20033;-74
2024/01/08 02:59:06;;;;;;;6.10;2.70;;;;;;;-0.47;83.53;101999.50;5208199;28;20045;-74
2024/01/08 03:01:38;;;;;;;6.10;2.70;;;;;;;-0.63;82.59;102004.97;5200228;28;20067;-73
2024/01/08 03:04:08;;;;;;;6.22;2.58;;;;;;;-0.67;82.12;102013.38;5208045;28;20518;-74
2024/01/08 03:06:39;;;;;;;7.93;2.90;;;;;;;-0.83;82.62;102014.59;5215701;28;20091;-74
2024/01/08 03:09:09;;;;;;;4.85;2.40;;;;;;;-0.67;82.77;102013.38;5215910;28;20033;-74
2024/01/08 03:11:39;;;;;;;8.43;3.28;;;;;;;-0.76;82.67;102010.53;5213215;28;20053;-74
2024/01/08 03:14:10;;;;;;;5.65;3.17;;;;;;;-0.83;82.10;102013.72;5208680;28;20025;-73
2024/01/08 03:16:40;;;;;;;6.50;2.83;;;;;;;-0.91;81.82;102016.03;5210175;28;20021;-74
2024/01/08 03:19:10;;;;;;;10.00;3.33;;;;;;;-0.90;82.08;102024.59;5207684;28;20296;-74
2024/01/08 03:21:40;;;;;;;7.15;3.47;;;;;;;-0.96;81.91;102021.81;5208849;28;20029;-74
2024/01/08 03:24:11;;;;;;;8.05;3.58;;;;;;;-0.92;82.73;102037.38;5214044;28;20053;-74
2024/01/08 03:26:41;;;;;;;8.10;3.42;;;;;;;-0.93;82.38;102032.22;5216774;28;20043;-73
2024/01/08 03:29:11;;;;;;;10.80;3.00;;;;;;;-0.92;82.18;102026.25;5207862;28;20226;-73
2024/01/08 03:31:45;;;;;;;6.15;3.03;;;;;;;-0.98;82.08;102042.31;5204555;28;20067;-75
2024/01/08 03:34:16;;;;;;;7.40;3.53;;;;;;;-1.09;81.12;102051.31;5201637;28;20087;-74
2024/01/08 03:36:47;;;;;;;6.28;2.83;;;;;;;-1.28;80.31;102053.16;5207286;28;20029;-74
2024/01/08 03:39:17;;;;;;;6.32;2.80;;;;;;;-1.46;79.28;102052.50;5211127;28;20052;-74
2024/01/08 03:41:48;;;;;;;5.13;2.80;;;;;;;-1.57;77.67;102061.53;5217831;28;20099;-74
2024/01/08 03:44:18;;;;;;;6.28;2.25;;;;;;;-1.67;74.58;102067.13;5216427;28;20512;-74
2024/01/08 03:46:48;;;;;;;4.78;2.10;;;;;;;-1.93;72.13;102074.63;5218207;28;20024;-74
2024/01/08 03:49:18;;;;;;;5.75;2.10;;;;;;;-1.99;70.50;102075.28;5207590;28;20052;-73
2024/01/08 03:51:49;;;;;;;7.43;2.20;;;;;;;-2.05;71.71;102077.59;5206787;28;20555;-74
2024/01/08 03:54:19;;;;;;;5.50;1.90;;;;;;;-2.23;70.35;102079.44;5208499;28;20021;-74
2024/01/08 03:56:49;;;;;;;6.13;2.20;;;;;;;-2.27;69.43;102075.03;5205817;28;20022;-73
2024/01/08 03:59:19;;;;;;;5.72;1.95;;;;;;;-2.36;69.23;102066.97;5207646;28;20033;-73
2024/01/08 04:01:50;;;;;;;4.32;2.10;;;;;;;-2.44;68.96;102077.72;5207788;28;20139;-73
2024/01/08 04:04:21;;;;;;;4.50;1.98;;;;;;;-2.44;69.09;102076.06;5209820;28;20033;-73
2024/01/08 04:06:51;;;;;;;4.60;1.88;;;;;;;-2.50;69.29;102077.47;5210444;28;20025;-73
2024/01/08 04:09:22;;;;;;;4.15;1.75;;;;;;;-2.49;68.71;102092.88;5211583;28;20028;-74
2024/01/08 04:11:53;;;;;;;4.63;2.00;;;;;;;-2.53;68.42;102078.22;5200776;28;20030;-73
2024/01/08 04:14:24;;;;;;;6.43;2.40;;;;;;;-2.44;69.24;102073.50;5198540;28;20025;-73
2024/01/08 04:16:54;;;;;;;4.35;1.88;;;;;;;-2.57;69.44;102083.13;5200836;28;20108;-73
2024/01/08 04:19:24;;;;;;;5.47;2.40;;;;;;;-2.59;69.34;102077.97;5201678;28;20032;-73
2024/01/08 04:21:55;;;;;;;4.18;2.03;;;;;;;-2.60;69.04;102083.91;5204328;28;20513;-73
2024/01/08 04:24:25;;;;;;;5.13;2.00;;;;;;;-2.76;68.88;102094.31;5201271;28;20510;-73
2024/01/08 04:26:55;;;;;;;4.10;1.95;;;;;;;-2.70;69.15;102098.81;5204153;28;20124;-73
2024/01/08 04:29:26;;;;;;;3.78;1.70;;;;;;;-2.67;68.31;102093.81;5196682;28;20383;-73
2024/01/08 04:31:56;;;;;;;4.75;2.05;;;;;;;-2.80;70.17;102091.56;5193867;28;20029;-72
2024/01/08 04:34:27;;;;;;;5.65;2.42;;;;;;;-2.81;70.03;102106.06;5196477;28;20065;-73
2024/01/08 04:36:57;;;;;;;6.35;1.83;;;;;;;-2.82;70.00;102099.16;5196764;28;20279;-73
2024/01/08 04:39:27;;;;;;;4.75;1.98;;;;;;;-2.78;69.55;102105.28;5200966;28;20029;-74
2024/01/08 04:41:58;;;;;;;4.43;2.05;;;;;;;-2.99;69.49;102107.78;5207241;28;20044;-73
2024/01/08 04:44:31;;;;;;;6.10;2.15;;;;;;;-2.88;68.89;102124.47;5199278;28;20306;-74
2024/01/08 04:47:01;;;;;;;5.80;2.10;;;;;;;-3.10;67.67;102129.50;5205466;28;20425;-73
2024/01/08 04:49:32;;;;;;;4.05;1.88;;;;;;;-2.94;68.79;102119.13;5208300;28;20034;-73
2024/01/08 04:52:02;;;;;;;4.07;1.92;;;;;;;-3.07;67.32;102121.06;5199175;28;20487;-74
2024/01/08 04:54:32;;;;;;;5.53;2.17;;;;;;;-3.18;66.96;102112.94;5200753;28;20097;-73
2024/01/08 04:57:03;;;;;;;4.13;2.03;;;;;;;-3.12;67.14;102113.22;5204073;28;20024;-73
2024/01/08 04:59:41;;;;;;;4.97;2.00;;;;;;;-3.21;68.47;102117.91;5209999;28;20051;-74
2024/01/08 05:02:12;;;;;;;6.68;2.70;;;;;;;-3.11;68.86;102119.19;5203137;28;20257;-73
2024/01/08 05:04:42;;;;;;;4.25;2.00;;;;;;;-3.25;69.79;102121.16;5203160;28;20029;-73
2024/01/08 05:07:13;;;;;;;6.10;2.40;;;;;;;-3.20;69.58;102117.09;5209813;28;21187;-73
2024/01/08 05:09:43;;;;;;;9.57;2.97;;;;;;;-3.17;69.00;102121.50;5208305;28;20041;-73
2024/01/08 05:12:13;;;;;;;5.53;2.40;;;;;;;-3.38;68.75;102128.22;5205217;28;20120;-72
2024/01/08 05:14:44;;;;;;;4.53;2.20;;;;;;;-3.28;68.94;102126.13;5205265;28;20063;-73
2024/01/08 05:17:14;;;;;;;3.97;2.20;;;;;;;-3.27;68.82;102122.75;5203305;28;20025;-73
2024/01/08 05:19:44;;;;;;;6.20;2.40;;;;;;;-3.22;68.18;102139.16;5198929;28;20036;-73
2024/01/08 05:22:14;;;;;;;5.05;2.00;;;;;;;-3.25;68.29;102135.59;5200612;28;20425;-73
2024/01/08 05:24:45;;;;;;;5.18;1.90;;;;;;;-3.25;67.34;102133.94;5204875;28;20187;-73
2024/01/08 05:27:15;;;;;;;4.18;2.00;;;;;;;-3.44;67.40;102127.91;5203534;28;20033;-73
2024/01/08 05:29:45;;;;;;;6.10;2.28;;;;;;;-3.45;66.72;102136.38;5207394;28;20028;-73
2024/01/08 05:32:16;;;;;;;4.40;2.15;;;;;;;-3.45;65.21;102144.06;5206851;28;20488;-72
2024/01/08 05:34:46;;;;;;;6.53;2.30;;;;;;;-3.44;64.52;102145.81;5206787;28;20135;-73
2024/01/08 05:37:16;;;;;;;4.68;1.98;;;;;;;-3.56;63.79;102133.34;5206093;28;20036;-73
2024/01/08 05:39:46;;;;;;;5.60;2.30;;;;;;;-3.74;63.04;102152.09;5202915;28;20021;-74
2024/01/08 05:42:17;;;;;;;3.88;1.85;;;;;;;-3.53;62.99;102158.19;5205081;28;20040;-73
2024/01/08 05:44:47;;;;;;;5.88;2.40;;;;;;;-3.83;63.47;102153.31;5205135;28;20033;-73
2024/01/08 05:47:17;;;;;;;6.40;2.45;;;;;;;-3.77;63.23;102151.91;5207601;28;20441;-72
2024/01/08 05:49:47;;;;;;;5.75;2.45;;;;;;;-3.77;63.99;102158.72;5204574;28;20474;-73
2024/01/08 05:52:18;;;;;;;6.93;2.70;;;;;;;-3.79;64.25;102153.53;5200016;28;20052;-73
2024/01/08 05:54:48;;;;;;;5.80;2.40;;;;;;;-3.87;64.83;102153.97;5203811;28;20180;-73
2024/01/08 05:57:19;;;;;;;4.88;2.33;;;;;;;-3.96;63.62;102168.88;5209442;28;20021;-73
2024/01/08 05:59:50;;;;;;;7.15;2.60;;;;;;;-3.93;64.66;102169.00;5208426;28;20420;-73
2024/01/08 06:02:20;;;;;;;4.35;2.00;;;;;;;-3.82;64.87;102163.59;5200294;28;20037;-72
2024/01/08 06:04:50;;;;;;;8.25;3.13;;;;;;;-3.74;65.15;102156.31;5201871;28;20021;-73
2024/01/08 06:07:20;;;;;;;6.82;2.40;;;;;;;-3.95;65.48;102155.31;5202379;28;20163;-72
2024/01/08 06:09:51;;;;;;;4.65;2.22;;;;;;;-3.79;65.82;102163.75;5206942;28;20051;-73
2024/01/08 06:12:21;;;;;;;7.20;2.47;;;;;;;-3.90;65.48;102171.69;5203532;28;20037;-72
2024/01/08 06:14:51;;;;;;;6.20;2.10;;;;;;;-3.97;66.10;102177.34;5205385;28;20056;-72
2024/01/08 06:17:22;;;;;;;9.32;2.88;;;;;;;-3.75;66.26;102175.84;5205276;28;20116;-72
2024/01/08 06:19:52;;;;;;;8.38;2.47;;;;;;;-3.77;65.64;102187.66;5200324;28;20040;-73
2024/01/08 06:22:22;;;;;;;4.78;2.13;;;;;;;-3.88;66.39;102193.06;5198953;28;20035;-72
2024/01/08 06:24:53;;;;;;;5.95;2.13;;;;;;;-4.00;66.60;102197.56;5200829;28;20036;-73
2024/01/08 06:27:23;;;;;;;5.38;2.15;;;;;;;-4.07;65.99;102200.66;5204377;28;20113;-73
2024/01/08 06:29:53;;;;;;;5.03;2.67;;;;;;;-4.06;65.44;102204.94;5205240;28;20097;-73
2024/01/08 06:32:24;;;;;;;6.53;2.67;;;;;;;-4.05;65.93;102214.34;5200080;28;20018;-72
2024/01/08 06:34:54;;;;;;;6.70;2.72;;;;;;;-3.87;67.32;102205.03;5206861;28;20159;-73
2024/01/08 06:37:25;;;;;;;5.78;2.40;;;;;;;-4.13;66.10;102215.66;5201358;28;20115;-73
2024/01/08 06:39:55;;;;;;;8.00;2.60;;;;;;;-4.17;65.98;102216.28;5202916;28;20505;-73
2024/01/08 06:42:25;;;;;;;7.18;2.50;;;;;;;-4.03;66.45;102218.75;5203823;28;20251;-73
2024/01/08 06:44:56;;;;;;;6.00;2.80;;;;;;;-4.18;66.20;102223.09;5210709;28;20236;-73
2024/01/08 06:47:26;;;;;;;5.20;2.40;;;;;;;-4.12;66.80;102223.38;5202825;28;20534;-73
2024/01/08 06:49:56;;;;;;;6.88;2.53;;;;;;;-4.14;66.84;102235.19;5207222;28;20032;-72
2024/01/08 06:52:27;;;;;;;5.80;2.60;;;;;;;-4.27;67.25;102235.38;5205565;28;20021;-72
2024/01/08 06:54:57;;;;;;;8.98;2.80;;;;;;;-4.36;66.96;102246.81;5208425;28;20037;-73
2024/01/08 06:57:28;;;;;;;7.03;2.35;;;;;;;-4.45;66.85;102241.25;5204626;28;20036;-73
2024/01/08 06:59:58;;;;;;;6.55;2.55;;;;;;;-4.26;67.27;102249.88;5206674;28;20034;-73
2024/01/08 07:02:29;;;;;;;6.22;2.53;;;;;;;-4.36;67.85;102249.34;5206480;28;20119;-73
2024/01/08 07:05:00;;;;;;;4.93;2.40;;;;;;;-4.45;67.70;102251.47;5207386;28;20112;-72
2024/01/08 07:07:30;;;;;;;6.13;2.38;;;;;;;-4.52;67.87;102259.56;5207619;28;20124;-72
2024/01/08 07:10:00;;;;;;;7.20;2.58;;;;;;;-4.42;68.22;102272.00;5203398;28;20048;-73
2024/01/08 07:12:31;;;;;;;9.68;3.15;;;;;;;-4.53;68.51;102263.81;5206740;28;20127;-73
2024/01/08 07:15:03;;;;;;;5.68;2.60;;;;;;;-4.46;68.91;102268.41;5206288;28;20037;-73
2024/01/08 07:17:34;;;;;;;5.82;2.47;;;;;;;-4.26;69.19;102269.44;5208013;28;20033;-73
2024/01/08 07:20:05;;;;;;;5.00;2.30;;;;;;;-4.45;68.53;102271.88;5208340;28;20040;-73
2024/01/08 07:22:35;;;;;;;6.18;2.65;;;;;;;-4.28;68.56;102277.00;5207261;28;20106;-73
2024/01/08 07:25:06;;;;;;;6.25;2.75;;;;;;;-4.52;69.29;102282.53;5206562;28;20041;-73
2024/01/08 07:27:36;;;;;;;9.18;2.67;;;;;;;-4.62;68.95;102295.63;5209912;28;20029;-73
2024/01/08 07:30:09;;;;;;;7.38;2.80;;;;;;;-4.69;68.75;102293.53;5207024;28;20038;-73
2024/01/08 07:32:39;;;;;;;9.70;2.97;;;;;;;-4.73;68.44;102291.63;5209149;28;20115;-72
2024/01/08 07:35:11;;;;;;;7.78;3.08;;;;;;;-4.49;69.08;102291.22;5209720;28;20497;-73
2024/01/08 07:37:41;;;;;;;7.97;2.92;;;;;;;-4.47;68.05;102298.97;5205549;28;20078;-73
2024/01/08 07:40:14;;;;;;;8.23;2.78;;;;;;;-4.46;67.41;102301.56;5209354;28;20025;-72
2024/01/08 07:42:44;;;;;;;7.63;2.90;;;;;;;-4.43;68.70;102305.97;5205855;28;20043;-73
2024/01/08 07:45:14;;;;;;;6.70;2.63;;;;;;;-4.59;68.39;102308.53;5203495;28;20440;-71
2024/01/08 07:47:45;;;;;;;7.57;3.10;;;;;;;-4.49;68.07;102308.22;5207795;28;20091;-72
2024/01/08 07:50:15;;;;;;;6.45;2.88;;;;;;;-4.66;68.27;102312.41;5211363;28;20144;-71
2024/01/08 07:52:46;;;;;;;8.40;2.72;;;;;;;-4.62;67.81;102313.47;5208302;28;20032;-73
2024/01/08 07:55:17;;;;;;;9.02;2.97;;;;;;;-4.34;68.69;102312.44;5208930;28;20033;-72
2024/01/08 07:57:47;;;;;;;8.75;3.22;;;;;;;-4.31;68.61;102309.16;5209988;28;20461;-73
2024/01/08 08:00:19;;;;;;;9.10;2.97;;;;;;;-3.92;68.41;102309.47;5202156;28;20069;-72
2024/01/08 08:02:50;;;;;;;8.13;3.05;;;;;;;-3.68;67.87;102309.81;5207044;28;20029;-73
2024/01/08 08:05:20;;;;;;;7.32;2.63;;;;;;;-3.90;66.61;102322.31;5205331;28;20021;-73
2024/01/08 08:07:51;;;;;;;8.38;2.78;;;;;;;-3.95;66.21;102326.34;5210288;28;20031;-74
2024/01/08 08:10:22;;;;;;;7.15;3.05;;;;;;;-3.69;66.67;102325.94;5208735;28;20025;-72
2024/01/08 08:12:52;;;;;;;6.68;2.63;;;;;;;-3.11;66.08;102333.91;5208083;28;20029;-74
2024/01/08 08:15:23;;;;;;;6.63;2.70;;;;;;;-2.90;64.90;102337.47;5204560;28;20029;-72
2024/01/08 08:17:54;;;;;;;7.28;3.00;;;;;;;-2.55;64.33;102335.72;5205324;28;20263;-74
2024/01/08 08:20:24;;;;;;;7.53;2.80;;;;;;;-1.97;63.00;102334.88;5208276;28;20330;-74
2024/01/08 08:22:54;;;;;;;6.28;2.80;;;;;;;-1.82;62.08;102328.72;5205356;28;20028;-73
2024/01/08 08:25:25;;;;;;;6.50;2.72;;;;;;;-0.57;60.02;102328.63;5206394;28;20037;-74
2024/01/08 08:27:55;;;;;;;5.72;2.83;;;;;;;-1.34;61.41;102329.84;5207146;28;20037;-74
2024/01/08 08:30:26;;;;;;;7.28;3.22;;;;;;;-2.30;62.14;102351.34;5206661;28;20410;-74
2024/01/08 08:32:58;;;;;;;9.98;2.67;;;;;;;-2.27;63.30;102350.59;5208749;28;20040;-74
2024/01/08 08:35:29;;;;;;;6.35;3.20;;;;;;;-2.09;62.31;102341.16;5208475;28;20162;-74
2024/01/08 08:37:59;;;;;;;7.47;3.58;;;;;;;-2.33;63.49;102353.78;5211883;28;20111;-74
2024/01/08 08:40:29;;;;;;;7.60;3.20;;;;;;;-2.60;64.48;102367.00;5206815;28;20037;-74
2024/01/08 08:42:59;;;;;;;8.55;3.47;;;;;;;-2.81;65.29;102372.03;5204134;28;20417;-73
2024/01/08 08:45:30;;;;;;;6.55;2.95;;;;;;;-3.32;65.49;102368.69;5210272;28;20032;-73
2024/01/08 08:48:00;;;;;;;7.70;3.20;;;;;;;-3.64;65.76;102384.09;5211123;28;20445;-74
2024/01/08 08:50:30;;;;;;;7.78;3.08;;;;;;;-3.65;66.64;102381.50;5209150;28;20035;-74
2024/01/08 08:53:01;;;;;;;7.43;3.15;;;;;;;-3.80;67.32;102390.94;5208478;28;20064;-74
2024/01/08 08:55:31;;;;;;;7.18;2.85;;;;;;;-3.83;68.41;102395.88;5209302;28;20025;-73
2024/01/08 08:58:01;;;;;;;7.82;3.13;;;;;;;-3.72;69.11;102393.09;5209771;28;20032;-74
2024/01/08 09:00:31;;;;;;;6.20;2.80;;;;;;;-3.85;67.46;102390.69;5213174;28;20268;-74
2024/01/08 09:03:05;;;;;;;9.50;3.08;;;;;;;-3.88;69.56;102388.00;5205683;28;20128;-73
2024/01/08 09:05:36;;;;;;;6.65;3.30;;;;;;;-3.93;69.03;102394.53;5212237;28;20071;-74
2024/01/08 09:08:06;;;;;;;7.97;3.20;;;;;;;-3.87;69.29;102393.97;5209421;28;20327;-74
2024/01/08 09:10:37;;;;;;;5.88;2.65;;;;;;;-4.00;68.77;102402.69;5205404;28;20127;-73
2024/01/08 09:13:07;;;;;;;8.35;3.28;;;;;;;-4.07;69.43;102405.72;5207961;28;20041;-74
2024/01/08 09:15:37;;;;;;;8.52;3.13;;;;;;;-4.05;68.81;102403.22;5208244;28;20025;-74
2024/01/08 09:18:08;;;;;;;7.32;3.30;;;;;;;-4.11;69.66;102402.94;5209202;28;20029;-73
2024/01/08 09:20:38;;;;;;;6.95;3.28;;;;;;;-4.10;69.31;102418.28;5211429;28;20581;-74
2024/01/08 09:23:08;;;;;;;6.80;3.17;;;;;;;-4.10;70.10;102417.44;5206358;28;20044;-73
2024/01/08 09:25:39;;;;;;;7.20;3.00;;;;;;;-3.83;68.91;102429.06;5209043;28;20424;-74
2024/01/08 09:28:09;;;;;;;5.88;2.85;;;;;;;-3.85;69.45;102423.00;5213215;28;20028;-73
2024/01/08 09:30:41;;;;;;;8.98;3.13;;;;;;;-4.01;69.19;102433.22;5205827;28;20122;-73
2024/01/08 09:33:11;;;;;;;7.70;3.30;;;;;;;-3.98;69.06;102428.31;5208080;28;20068;-74
2024/01/08 09:35:41;;;;;;;6.80;3.22;;;;;;;-4.02;68.86;102436.56;5206951;28;20036;-73
2024/01/08 09:38:12;;;;;;;6.53;2.72;;;;;;;-4.02;69.80;102437.47;5208464;28;20394;-73
2024/01/08 09:40:42;;;;;;;5.50;2.80;;;;;;;-3.93;70.11;102435.38;5207132;28;20029;-72
2024/01/08 09:43:16;;;;;;;7.40;3.38;;;;;;;-3.89;69.65;102446.63;5203181;28;20288;-72
2024/01/08 09:46:23;;;;;;;7.57;2.97;;;;;;;-4.03;69.20;102437.38;5203147;28;20217;-72
2024/01/08 09:48:54;;;;;;;8.20;2.90;;;;;;;-3.88;69.75;102443.28;5190254;28;20072;-72
2024/01/08 09:51:25;;;;;;;6.18;3.20;;;;;;;-3.77;69.44;102440.47;5201758;28;20026;-72
2024/01/08 09:53:58;;;;;;;5.47;2.63;;;;;;;-3.74;68.98;102443.22;5207951;28;20029;-72
2024/01/08 09:56:30;;;;;;;7.60;3.38;;;;;;;-3.87;68.27;102435.72;5203426;28;20096;-72
2024/01/08 09:59:00;;;;;;;6.25;2.88;;;;;;;-3.99;68.27;102439.31;5206298;28;20033;-72
2024/01/08 10:01:31;;;;;;;6.93;2.70;;;;;;;-3.86;68.30;102437.47;5204796;28;20025;-72
2024/01/08 10:04:01;;;;;;;7.07;2.90;;;;;;;-3.77;67.96;102430.25;5208161;28;20025;-72
2024/01/08 10:06:31;;;;;;;5.93;2.80;;;;;;;-3.82;67.83;102429.16;5206252;28;20083;-72
2024/01/08 10:09:04;;;;;;;6.43;3.28;;;;;;;-3.85;68.50;102433.22;5206238;28;20029;-72
2024/01/08 10:11:35;;;;;;;7.15;3.15;;;;;;;-3.84;68.80;102434.97;5204603;28;20026;-72
2024/01/08 10:14:08;;;;;;;6.35;2.65;;;;;;;-3.65;68.57;102427.47;5208722;28;20624;-72
2024/01/08 10:16:40;;;;;;;6.47;2.97;;;;;;;-3.81;69.21;102430.03;5208422;28;20025;-72
2024/01/08 10:19:13;;;;;;;7.95;3.05;;;;;;;-3.65;68.81;102441.09;5213511;28;20029;-72
2024/01/08 10:21:45;;;;;;;6.25;2.80;;;;;;;-3.63;68.60;102435.28;5209377;28;20406;-72
2024/01/08 10:24:15;;;;;;;6.68;3.00;;;;;;;-3.50;69.64;102435.06;5211145;28;20025;-72
2024/01/08 10:26:46;;;;;;;5.60;2.60;;;;;;;-3.73;69.09;102444.06;5212063;28;20505;-72
2024/01/08 10:29:18;;;;;;;7.88;3.42;;;;;;;-3.68;69.45;102448.63;5210360;28;20033;-73
2024/01/08 10:31:48;;;;;;;7.45;2.65;;;;;;;-3.52;68.00;102443.47;5209934;28;20038;-72
2024/01/08 10:34:19;;;;;;;5.43;2.60;;;;;;;-3.58;68.23;102432.94;5208515;28;20072;-72
2024/01/08 10:36:50;;;;;;;6.85;2.72;;;;;;;-3.47;68.22;102440.38;5208709;28;20131;-72
2024/01/08 10:39:22;;;;;;;6.68;2.95;;;;;;;-3.48;67.83;102427.50;5215841;28;20055;-72
2024/01/08 10:41:53;;;;;;;5.43;2.80;;;;;;;-3.49;67.72;102436.88;5206497;28;20021;-72
2024/01/08 10:44:24;;;;;;;9.52;3.25;;;;;;;-3.42;67.30;102438.00;5210721;28;20360;-73
2024/01/08 10:46:59;;;;;;;6.55;3.00;;;;;;;-3.42;68.00;102433.78;5209121;28;20478;-72
2024/01/08 10:49:33;;;;;;;9.90;2.70;;;;;;;-3.37;67.51;102437.44;5209795;28;20083;-73
2024/01/08 10:52:26;;;;;;;9.17;3.07;;;;;;;-3.22;67.52;102437.34;5209559;28;20044;-72
2024/01/08 10:54:58;;;;;;;5.10;2.20;;;;;;;-3.54;66.86;102433.16;5208450;28;20076;-72
2024/01/08 10:58:03;;;;;;;7.43;2.85;;;;;;;-3.45;67.62;102442.97;5208743;28;20025;-72
2024/01/08 11:00:34;;;;;;;5.68;2.70;;;;;;;-3.30;67.99;102446.31;5195833;28;20029;-71
2024/01/08 11:03:05;;;;;;;5.95;2.65;;;;;;;-3.40;68.18;102442.41;5200042;28;20030;-72
2024/01/08 11:05:36;;;;;;;8.18;2.70;;;;;;;-3.28;67.93;102435.38;5203543;28;20057;-72
2024/01/08 11:08:10;;;;;;;5.75;2.65;;;;;;;-3.39;69.36;102441.59;5205622;28;20526;-72
2024/01/08 11:10:40;;;;;;;7.18;2.80;;;;;;;-3.43;68.03;102444.81;5203082;28;20636;-72
2024/01/08 11:13:10;;;;;;;6.75;2.80;;;;;;;-3.36;68.65;102441.75;5200465;28;20021;-72
2024/01/08 11:15:44;;;;;;;8.30;2.85;;;;;;;-3.11;68.48;102431.94;5205178;28;20037;-73
2024/01/08 11:18:26;;;;;;;8.23;2.88;;;;;;;-3.44;67.34;102434.50;5208372;28;20393;-72
2024/01/08 11:20:57;;;;;;;7.45;3.00;;;;;;;-3.43;67.21;102438.81;5208274;28;20494;-72
2024/01/08 11:23:30;;;;;;;8.52;2.78;;;;;;;-3.30;67.56;102442.09;5207620;28;20115;-72
2024/01/08 11:26:02;;;;;;;7.13;2.53;;;;;;;-3.27;66.20;102444.78;5207541;28;20251;-73
2024/01/08 11:28:36;;;;;;;5.05;2.17;;;;;;;-3.28;66.96;102453.25;5203208;28;20266;-73
2024/01/08 11:31:29;;;;;;;6.85;2.63;;;;;;;-3.25;66.86;102440.63;5206315;28;20095;-72
2024/01/08 11:34:30;;;;;;;7.72;3.00;;;;;;;-3.22;68.11;102445.88;5207498;28;20033;-72
2024/01/08 11:37:22;;;;;;;7.97;2.70;;;;;;;-3.14;67.08;102431.81;5210397;28;20061;-72
2024/01/08 11:39:53;;;;;;;6.38;3.00;;;;;;;-3.16;68.04;102441.06;5206025;28;20061;-72
2024/01/08 11:42:24;;;;;;;8.40;3.00;;;;;;;-3.04;67.66;102448.47;5206284;28;20129;-72